Terminal Aerodrome Forecast
Issued by NWS Twin Cities, MN

Home | Current Version | Previous Version | Graphics & Text | Print | Product List | Glossary On
Versions: 1 2 3 4 5 6 7 8 9 10 11 12 13 14 15 16 17 18 19
252
FTUS43 KMPX 171457 AAB
TAFSTC
TAF AMD
KSTC 171457Z 1715/1812 29009KT P6SM BKN018
     FM171800 29008KT P6SM SCT022 BKN200
      TEMPO 1718/1720 BKN022
     FM180000 VRB03KT P6SM SCT150
     FM180800 15003KT P6SM BKN110=

USA.gov is the U.S. government's official web portal to all federal, state and local government web resources and services.